Tweed, Canada
Current Conditions -  °F | °C
As of 2:00 PM on Thursday 27 Nov 2014 (Local Time) from CYTR Reporting Station
Overcast Overcast  
Wind Chill: 24°   Ceiling: 2400
Heat Index: 30°   Visibility: 15mi
Dew Point: 23°   Wind: 6mph
Humidity: 75%   Direction: 210°SSW
Pressure: 30.04"   Gusts: NA
Location:  44.47°N, 77.3°W
Report Text: CYTR 271900Z 21005KT 15SM BKN024 OVC090 M01/M05 A3004 RMK SC7AC1 SLP177
Loading
Personal Weather Stations






























Interactive Weather Map New forecast layout! Learn more

10-Day Weather Forecast

Advertisements
Track Severe Weather on mobile